sensor_id;sensor_type;location;lat;lon;timestamp;P1;durP1;ratioP1;P2;durP2;ratioP2
4355;SDS011;64374;51.482;7.408;2023-08-31T00:02:09;8.93;;;4.40;;
4355;SDS011;64374;51.482;7.408;2023-08-31T00:04:58;10.80;;;4.57;;
4355;SDS011;64374;51.482;7.408;2023-08-31T00:07:45;8.33;;;3.50;;
4355;SDS011;64374;51.482;7.408;2023-08-31T00:10:33;4.80;;;4.10;;
4355;SDS011;64374;51.482;7.408;2023-08-31T00:13:21;10.53;;;4.60;;
4355;SDS011;64374;51.482;7.408;2023-08-31T00:16:07;6.60;;;3.90;;
4355;SDS011;64374;51.482;7.408;2023-08-31T00:18:57;6.13;;;3.33;;
4355;SDS011;64374;51.482;7.408;2023-08-31T00:21:44;5.93;;;3.60;;
4355;SDS011;64374;51.482;7.408;2023-08-31T00:24:34;4.70;;;3.30;;
4355;SDS011;64374;51.482;7.408;2023-08-31T00:27:22;5.60;;;3.77;;
4355;SDS011;64374;51.482;7.408;2023-08-31T00:30:21;8.37;;;3.37;;
4355;SDS011;64374;51.482;7.408;2023-08-31T00:32:55;6.27;;;3.63;;
4355;SDS011;64374;51.482;7.408;2023-08-31T00:35:27;10.13;;;3.90;;
4355;SDS011;64374;51.482;7.408;2023-08-31T00:37:59;6.93;;;4.20;;
4355;SDS011;64374;51.482;7.408;2023-08-31T00:40:29;5.90;;;3.50;;
4355;SDS011;64374;51.482;7.408;2023-08-31T00:43:05;12.67;;;4.13;;
4355;SDS011;64374;51.482;7.408;2023-08-31T00:45:35;7.73;;;3.47;;
4355;SDS011;64374;51.482;7.408;2023-08-31T00:48:11;6.63;;;3.40;;
4355;SDS011;64374;51.482;7.408;2023-08-31T00:50:42;8.93;;;3.27;;
4355;SDS011;64374;51.482;7.408;2023-08-31T00:53:14;7.53;;;4.10;;
4355;SDS011;64374;51.482;7.408;2023-08-31T00:55:47;9.90;;;4.03;;
4355;SDS011;64374;51.482;7.408;2023-08-31T00:58:15;11.70;;;3.20;;
4355;SDS011;64374;51.482;7.408;2023-08-31T01:00:46;6.47;;;3.60;;
4355;SDS011;64374;51.482;7.408;2023-08-31T01:03:22;8.10;;;3.27;;
4355;SDS011;64374;51.482;7.408;2023-08-31T01:06:02;7.37;;;3.50;;
4355;SDS011;64374;51.482;7.408;2023-08-31T01:08:40;8.10;;;3.50;;
4355;SDS011;64374;51.482;7.408;2023-08-31T01:11:24;7.20;;;3.20;;
4355;SDS011;64374;51.482;7.408;2023-08-31T01:14:02;7.80;;;2.83;;
4355;SDS011;64374;51.482;7.408;2023-08-31T01:16:39;5.83;;;3.47;;
4355;SDS011;64374;51.482;7.408;2023-08-31T01:19:13;4.77;;;2.57;;
4355;SDS011;64374;51.482;7.408;2023-08-31T01:21:53;10.80;;;3.23;;
4355;SDS011;64374;51.482;7.408;2023-08-31T01:24:26;6.47;;;3.33;;
4355;SDS011;64374;51.482;7.408;2023-08-31T01:26:55;2.97;;;2.67;;
4355;SDS011;64374;51.482;7.408;2023-08-31T01:29:42;6.87;;;3.53;;
4355;SDS011;64374;51.482;7.408;2023-08-31T01:32:45;4.03;;;3.07;;
4355;SDS011;64374;51.482;7.408;2023-08-31T01:35:33;3.97;;;3.00;;
4355;SDS011;64374;51.482;7.408;2023-08-31T01:38:24;10.17;;;4.10;;
4355;SDS011;64374;51.482;7.408;2023-08-31T01:41:19;9.23;;;4.13;;
4355;SDS011;64374;51.482;7.408;2023-08-31T01:44:22;4.80;;;3.10;;
4355;SDS011;64374;51.482;7.408;2023-08-31T01:47:09;9.80;;;2.93;;
4355;SDS011;64374;51.482;7.408;2023-08-31T01:49:58;5.53;;;3.57;;
4355;SDS011;64374;51.482;7.408;2023-08-31T01:52:46;5.57;;;3.43;;
4355;SDS011;64374;51.482;7.408;2023-08-31T01:55:32;10.27;;;4.00;;
4355;SDS011;64374;51.482;7.408;2023-08-31T01:58:20;7.97;;;3.63;;
4355;SDS011;64374;51.482;7.408;2023-08-31T02:01:10;9.83;;;4.13;;
4355;SDS011;64374;51.482;7.408;2023-08-31T02:03:57;5.80;;;4.20;;
4355;SDS011;64374;51.482;7.408;2023-08-31T02:06:45;9.40;;;3.37;;
4355;SDS011;64374;51.482;7.408;2023-08-31T02:09:32;6.53;;;3.57;;
4355;SDS011;64374;51.482;7.408;2023-08-31T02:12:18;9.63;;;5.53;;
4355;SDS011;64374;51.482;7.408;2023-08-31T02:15:09;7.90;;;4.23;;
4355;SDS011;64374;51.482;7.408;2023-08-31T02:17:55;9.77;;;4.73;;
4355;SDS011;64374;51.482;7.408;2023-08-31T02:20:42;8.10;;;3.53;;
4355;SDS011;64374;51.482;7.408;2023-08-31T02:23:31;4.27;;;3.40;;
4355;SDS011;64374;51.482;7.408;2023-08-31T02:26:20;9.67;;;4.20;;
4355;SDS011;64374;51.482;7.408;2023-08-31T02:29:07;8.73;;;4.37;;
4355;SDS011;64374;51.482;7.408;2023-08-31T02:31:54;7.00;;;3.80;;
4355;SDS011;64374;51.482;7.408;2023-08-31T02:34:41;6.00;;;4.30;;
4355;SDS011;64374;51.482;7.408;2023-08-31T02:37:32;7.90;;;4.93;;
4355;SDS011;64374;51.482;7.408;2023-08-31T02:40:19;8.53;;;4.07;;
4355;SDS011;64374;51.482;7.408;2023-08-31T02:43:09;7.60;;;4.50;;
4355;SDS011;64374;51.482;7.408;2023-08-31T02:45:59;12.30;;;5.30;;
4355;SDS011;64374;51.482;7.408;2023-08-31T02:51:50;5.57;;;3.80;;
4355;SDS011;64374;51.482;7.408;2023-08-31T02:54:36;5.27;;;4.10;;
4355;SDS011;64374;51.482;7.408;2023-08-31T02:57:25;11.90;;;4.87;;
4355;SDS011;64374;51.482;7.408;2023-08-31T03:00:14;8.80;;;4.40;;
4355;SDS011;64374;51.482;7.408;2023-08-31T03:03:01;6.80;;;4.13;;
4355;SDS011;64374;51.482;7.408;2023-08-31T03:05:54;10.97;;;5.20;;
4355;SDS011;64374;51.482;7.408;2023-08-31T03:08:43;11.63;;;4.77;;
4355;SDS011;64374;51.482;7.408;2023-08-31T03:11:31;10.80;;;5.17;;
4355;SDS011;64374;51.482;7.408;2023-08-31T03:14:20;8.00;;;4.60;;
4355;SDS011;64374;51.482;7.408;2023-08-31T03:17:09;10.80;;;6.20;;
4355;SDS011;64374;51.482;7.408;2023-08-31T03:19:58;10.30;;;5.03;;
4355;SDS011;64374;51.482;7.408;2023-08-31T03:22:49;8.90;;;6.23;;
4355;SDS011;64374;51.482;7.408;2023-08-31T03:25:36;7.23;;;4.43;;
4355;SDS011;64374;51.482;7.408;2023-08-31T03:28:25;8.27;;;6.43;;
4355;SDS011;64374;51.482;7.408;2023-08-31T03:31:11;9.23;;;4.80;;
4355;SDS011;64374;51.482;7.408;2023-08-31T03:33:59;8.10;;;4.60;;
4355;SDS011;64374;51.482;7.408;2023-08-31T03:36:47;7.10;;;5.20;;
4355;SDS011;64374;51.482;7.408;2023-08-31T03:39:38;5.97;;;4.83;;
4355;SDS011;64374;51.482;7.408;2023-08-31T03:42:28;9.33;;;5.30;;
4355;SDS011;64374;51.482;7.408;2023-08-31T03:45:15;10.83;;;8.00;;
4355;SDS011;64374;51.482;7.408;2023-08-31T03:48:03;12.93;;;5.60;;
4355;SDS011;64374;51.482;7.408;2023-08-31T03:50:51;12.93;;;6.03;;
4355;SDS011;64374;51.482;7.408;2023-08-31T03:53:40;11.60;;;6.70;;
4355;SDS011;64374;51.482;7.408;2023-08-31T03:56:33;11.30;;;6.70;;
4355;SDS011;64374;51.482;7.408;2023-08-31T03:59:22;10.90;;;7.50;;
4355;SDS011;64374;51.482;7.408;2023-08-31T04:02:09;9.13;;;6.67;;
4355;SDS011;64374;51.482;7.408;2023-08-31T04:04:55;11.27;;;7.13;;
4355;SDS011;64374;51.482;7.408;2023-08-31T04:07:46;18.83;;;7.43;;
4355;SDS011;64374;51.482;7.408;2023-08-31T04:10:40;15.77;;;8.67;;
4355;SDS011;64374;51.482;7.408;2023-08-31T04:13:09;10.40;;;7.40;;
4355;SDS011;64374;51.482;7.408;2023-08-31T04:15:39;9.10;;;5.47;;
4355;SDS011;64374;51.482;7.408;2023-08-31T04:18:10;10.63;;;6.60;;
4355;SDS011;64374;51.482;7.408;2023-08-31T04:20:38;8.77;;;6.37;;
4355;SDS011;64374;51.482;7.408;2023-08-31T04:23:15;6.90;;;6.00;;
4355;SDS011;64374;51.482;7.408;2023-08-31T04:25:43;9.00;;;6.30;;
4355;SDS011;64374;51.482;7.408;2023-08-31T04:28:15;11.77;;;7.00;;
4355;SDS011;64374;51.482;7.408;2023-08-31T04:30:43;8.47;;;6.60;;
4355;SDS011;64374;51.482;7.408;2023-08-31T04:33:12;16.13;;;6.80;;
4355;SDS011;64374;51.482;7.408;2023-08-31T04:35:40;11.17;;;7.13;;
4355;SDS011;64374;51.482;7.408;2023-08-31T04:38:13;12.00;;;8.10;;
4355;SDS011;64374;51.482;7.408;2023-08-31T04:40:41;11.40;;;8.37;;
4355;SDS011;64374;51.482;7.408;2023-08-31T04:43:11;12.50;;;9.00;;
4355;SDS011;64374;51.482;7.408;2023-08-31T04:45:42;15.47;;;9.17;;
4355;SDS011;64374;51.482;7.408;2023-08-31T04:48:12;17.67;;;9.77;;
4355;SDS011;64374;51.482;7.408;2023-08-31T04:50:55;12.37;;;9.47;;
4355;SDS011;64374;51.482;7.408;2023-08-31T04:53:26;12.50;;;7.97;;
4355;SDS011;64374;51.482;7.408;2023-08-31T04:55:54;13.37;;;8.73;;
4355;SDS011;64374;51.482;7.408;2023-08-31T04:58:23;18.43;;;9.50;;
4355;SDS011;64374;51.482;7.408;2023-08-31T05:00:58;14.50;;;10.03;;
4355;SDS011;64374;51.482;7.408;2023-08-31T05:03:26;14.90;;;9.83;;
4355;SDS011;64374;51.482;7.408;2023-08-31T05:05:54;16.40;;;9.03;;
4355;SDS011;64374;51.482;7.408;2023-08-31T05:08:22;10.93;;;8.73;;
4355;SDS011;64374;51.482;7.408;2023-08-31T05:10:51;11.00;;;8.37;;
4355;SDS011;64374;51.482;7.408;2023-08-31T05:13:45;12.50;;;9.30;;
4355;SDS011;64374;51.482;7.408;2023-08-31T05:16:33;12.90;;;8.80;;
4355;SDS011;64374;51.482;7.408;2023-08-31T05:19:22;10.60;;;8.27;;
4355;SDS011;64374;51.482;7.408;2023-08-31T05:22:12;14.60;;;11.03;;
4355;SDS011;64374;51.482;7.408;2023-08-31T05:25:01;13.63;;;9.10;;
4355;SDS011;64374;51.482;7.408;2023-08-31T05:27:49;14.57;;;9.13;;
4355;SDS011;64374;51.482;7.408;2023-08-31T05:30:35;13.23;;;9.70;;
4355;SDS011;64374;51.482;7.408;2023-08-31T05:33:26;14.40;;;9.30;;
4355;SDS011;64374;51.482;7.408;2023-08-31T05:36:15;11.97;;;9.27;;
4355;SDS011;64374;51.482;7.408;2023-08-31T05:39:02;11.43;;;8.80;;
4355;SDS011;64374;51.482;7.408;2023-08-31T05:41:49;17.53;;;10.90;;
4355;SDS011;64374;51.482;7.408;2023-08-31T05:44:38;14.30;;;10.10;;
4355;SDS011;64374;51.482;7.408;2023-08-31T05:47:24;17.77;;;11.17;;
4355;SDS011;64374;51.482;7.408;2023-08-31T05:50:12;18.70;;;13.17;;
4355;SDS011;64374;51.482;7.408;2023-08-31T05:52:59;13.57;;;10.20;;
4355;SDS011;64374;51.482;7.408;2023-08-31T05:55:46;15.80;;;10.17;;
4355;SDS011;64374;51.482;7.408;2023-08-31T05:58:32;13.00;;;10.30;;
4355;SDS011;64374;51.482;7.408;2023-08-31T06:01:20;13.60;;;10.63;;
4355;SDS011;64374;51.482;7.408;2023-08-31T06:04:10;23.60;;;11.97;;
4355;SDS011;64374;51.482;7.408;2023-08-31T06:07:00;19.07;;;12.50;;
4355;SDS011;64374;51.482;7.408;2023-08-31T06:09:47;13.00;;;11.60;;
4355;SDS011;64374;51.482;7.408;2023-08-31T06:12:36;17.90;;;12.23;;
4355;SDS011;64374;51.482;7.408;2023-08-31T06:15:23;27.37;;;12.70;;
4355;SDS011;64374;51.482;7.408;2023-08-31T06:18:09;17.17;;;10.80;;
4355;SDS011;64374;51.482;7.408;2023-08-31T06:20:59;13.67;;;11.27;;
4355;SDS011;64374;51.482;7.408;2023-08-31T06:23:47;15.53;;;11.97;;
4355;SDS011;64374;51.482;7.408;2023-08-31T06:26:33;16.67;;;10.73;;
4355;SDS011;64374;51.482;7.408;2023-08-31T06:29:20;16.37;;;12.10;;
4355;SDS011;64374;51.482;7.408;2023-08-31T06:32:07;13.30;;;11.00;;
4355;SDS011;64374;51.482;7.408;2023-08-31T06:34:53;15.73;;;11.87;;
4355;SDS011;64374;51.482;7.408;2023-08-31T06:37:40;13.20;;;11.23;;
4355;SDS011;64374;51.482;7.408;2023-08-31T06:40:28;12.17;;;9.77;;
4355;SDS011;64374;51.482;7.408;2023-08-31T06:43:15;10.27;;;8.57;;
4355;SDS011;64374;51.482;7.408;2023-08-31T06:46:01;9.47;;;8.40;;
4355;SDS011;64374;51.482;7.408;2023-08-31T06:49:09;12.50;;;9.07;;
4355;SDS011;64374;51.482;7.408;2023-08-31T06:52:03;11.83;;;9.50;;
4355;SDS011;64374;51.482;7.408;2023-08-31T06:55:13;9.70;;;8.57;;
4355;SDS011;64374;51.482;7.408;2023-08-31T06:58:04;11.10;;;7.30;;
4355;SDS011;64374;51.482;7.408;2023-08-31T07:00:51;11.07;;;8.50;;
4355;SDS011;64374;51.482;7.408;2023-08-31T07:03:37;10.53;;;8.10;;
4355;SDS011;64374;51.482;7.408;2023-08-31T07:06:27;11.53;;;7.37;;
4355;SDS011;64374;51.482;7.408;2023-08-31T07:09:14;13.23;;;7.30;;
4355;SDS011;64374;51.482;7.408;2023-08-31T07:12:00;12.37;;;6.50;;
4355;SDS011;64374;51.482;7.408;2023-08-31T07:14:51;10.40;;;6.90;;
4355;SDS011;64374;51.482;7.408;2023-08-31T07:17:37;8.10;;;5.33;;
4355;SDS011;64374;51.482;7.408;2023-08-31T07:20:24;7.83;;;6.40;;
4355;SDS011;64374;51.482;7.408;2023-08-31T07:23:13;9.20;;;5.67;;
4355;SDS011;64374;51.482;7.408;2023-08-31T07:26:00;5.90;;;5.30;;
4355;SDS011;64374;51.482;7.408;2023-08-31T07:28:50;8.17;;;5.90;;
4355;SDS011;64374;51.482;7.408;2023-08-31T07:31:37;7.60;;;4.97;;
4355;SDS011;64374;51.482;7.408;2023-08-31T07:34:24;5.67;;;4.80;;
4355;SDS011;64374;51.482;7.408;2023-08-31T07:37:12;9.47;;;4.80;;
4355;SDS011;64374;51.482;7.408;2023-08-31T07:39:59;5.50;;;4.20;;
4355;SDS011;64374;51.482;7.408;2023-08-31T07:42:53;5.67;;;4.50;;
4355;SDS011;64374;51.482;7.408;2023-08-31T07:45:40;9.43;;;5.40;;
4355;SDS011;64374;51.482;7.408;2023-08-31T07:48:27;5.23;;;3.30;;
4355;SDS011;64374;51.482;7.408;2023-08-31T07:51:16;3.80;;;3.40;;
4355;SDS011;64374;51.482;7.408;2023-08-31T07:54:08;5.17;;;3.20;;
4355;SDS011;64374;51.482;7.408;2023-08-31T07:56:57;4.00;;;3.00;;
4355;SDS011;64374;51.482;7.408;2023-08-31T07:59:47;5.00;;;2.80;;
4355;SDS011;64374;51.482;7.408;2023-08-31T08:02:33;6.60;;;3.30;;
4355;SDS011;64374;51.482;7.408;2023-08-31T08:05:26;6.77;;;3.30;;
4355;SDS011;64374;51.482;7.408;2023-08-31T08:08:13;3.90;;;3.30;;
4355;SDS011;64374;51.482;7.408;2023-08-31T08:11:00;9.50;;;3.87;;
4355;SDS011;64374;51.482;7.408;2023-08-31T08:13:52;4.50;;;3.23;;
4355;SDS011;64374;51.482;7.408;2023-08-31T08:16:39;3.33;;;3.03;;
4355;SDS011;64374;51.482;7.408;2023-08-31T08:19:26;5.67;;;3.00;;
4355;SDS011;64374;51.482;7.408;2023-08-31T08:22:16;16.10;;;3.40;;
4355;SDS011;64374;51.482;7.408;2023-08-31T08:25:05;6.47;;;3.03;;
4355;SDS011;64374;51.482;7.408;2023-08-31T08:27:54;3.80;;;2.33;;
4355;SDS011;64374;51.482;7.408;2023-08-31T08:30:43;5.70;;;2.60;;
4355;SDS011;64374;51.482;7.408;2023-08-31T08:33:32;3.93;;;2.60;;
4355;SDS011;64374;51.482;7.408;2023-08-31T08:36:21;7.27;;;2.07;;
4355;SDS011;64374;51.482;7.408;2023-08-31T08:39:09;9.53;;;2.10;;
4355;SDS011;64374;51.482;7.408;2023-08-31T08:41:56;4.23;;;2.37;;
4355;SDS011;64374;51.482;7.408;2023-08-31T08:44:45;4.13;;;2.20;;
4355;SDS011;64374;51.482;7.408;2023-08-31T08:47:35;4.20;;;2.70;;
4355;SDS011;64374;51.482;7.408;2023-08-31T08:50:22;4.13;;;2.20;;
4355;SDS011;64374;51.482;7.408;2023-08-31T08:53:13;4.60;;;2.33;;
4355;SDS011;64374;51.482;7.408;2023-08-31T08:56:02;5.03;;;2.30;;
4355;SDS011;64374;51.482;7.408;2023-08-31T08:58:48;2.20;;;2.00;;
4355;SDS011;64374;51.482;7.408;2023-08-31T09:01:37;6.00;;;2.50;;
4355;SDS011;64374;51.482;7.408;2023-08-31T09:04:26;8.80;;;2.43;;
4355;SDS011;64374;51.482;7.408;2023-08-31T09:07:15;4.27;;;2.30;;
4355;SDS011;64374;51.482;7.408;2023-08-31T09:10:04;4.43;;;3.17;;
4355;SDS011;64374;51.482;7.408;2023-08-31T09:12:53;6.93;;;3.57;;
4355;SDS011;64374;51.482;7.408;2023-08-31T09:15:40;6.90;;;3.33;;
4355;SDS011;64374;51.482;7.408;2023-08-31T09:18:30;5.10;;;2.50;;
4355;SDS011;64374;51.482;7.408;2023-08-31T09:21:18;7.60;;;2.80;;
4355;SDS011;64374;51.482;7.408;2023-08-31T09:24:09;3.67;;;2.43;;
4355;SDS011;64374;51.482;7.408;2023-08-31T09:26:58;5.40;;;2.80;;
4355;SDS011;64374;51.482;7.408;2023-08-31T09:29:46;5.10;;;2.70;;
4355;SDS011;64374;51.482;7.408;2023-08-31T09:32:35;3.60;;;2.60;;
4355;SDS011;64374;51.482;7.408;2023-08-31T09:35:22;4.03;;;2.70;;
4355;SDS011;64374;51.482;7.408;2023-08-31T09:38:12;3.70;;;2.10;;
4355;SDS011;64374;51.482;7.408;2023-08-31T09:41:03;6.57;;;2.87;;
4355;SDS011;64374;51.482;7.408;2023-08-31T09:43:53;4.60;;;2.77;;
4355;SDS011;64374;51.482;7.408;2023-08-31T09:46:41;2.70;;;2.17;;
4355;SDS011;64374;51.482;7.408;2023-08-31T09:49:28;4.53;;;2.20;;
4355;SDS011;64374;51.482;7.408;2023-08-31T09:52:16;3.63;;;2.20;;
4355;SDS011;64374;51.482;7.408;2023-08-31T09:55:06;4.57;;;2.47;;
4355;SDS011;64374;51.482;7.408;2023-08-31T09:57:56;4.70;;;2.10;;
4355;SDS011;64374;51.482;7.408;2023-08-31T10:00:59;2.80;;;1.80;;
4355;SDS011;64374;51.482;7.408;2023-08-31T10:03:51;4.17;;;2.37;;
4355;SDS011;64374;51.482;7.408;2023-08-31T10:06:47;4.13;;;2.27;;
4355;SDS011;64374;51.482;7.408;2023-08-31T10:09:37;3.50;;;2.00;;
4355;SDS011;64374;51.482;7.408;2023-08-31T10:12:24;1.90;;;1.60;;
4355;SDS011;64374;51.482;7.408;2023-08-31T10:15:13;6.13;;;1.90;;
4355;SDS011;64374;51.482;7.408;2023-08-31T10:18:02;2.70;;;1.70;;
4355;SDS011;64374;51.482;7.408;2023-08-31T10:20:51;4.17;;;1.80;;
4355;SDS011;64374;51.482;7.408;2023-08-31T10:23:44;3.67;;;2.13;;
4355;SDS011;64374;51.482;7.408;2023-08-31T10:26:31;5.07;;;2.30;;
4355;SDS011;64374;51.482;7.408;2023-08-31T10:29:26;5.27;;;2.20;;
4355;SDS011;64374;51.482;7.408;2023-08-31T10:32:16;4.40;;;1.70;;
4355;SDS011;64374;51.482;7.408;2023-08-31T10:35:07;3.90;;;1.93;;
4355;SDS011;64374;51.482;7.408;2023-08-31T10:38:14;4.67;;;2.40;;
4355;SDS011;64374;51.482;7.408;2023-08-31T10:41:02;2.93;;;1.77;;
4355;SDS011;64374;51.482;7.408;2023-08-31T10:44:17;4.77;;;2.30;;
4355;SDS011;64374;51.482;7.408;2023-08-31T10:47:07;6.80;;;1.87;;
4355;SDS011;64374;51.482;7.408;2023-08-31T10:50:15;4.00;;;1.90;;
4355;SDS011;64374;51.482;7.408;2023-08-31T10:53:07;5.23;;;1.83;;
4355;SDS011;64374;51.482;7.408;2023-08-31T10:55:56;3.90;;;1.70;;
4355;SDS011;64374;51.482;7.408;2023-08-31T10:58:57;4.60;;;1.77;;
4355;SDS011;64374;51.482;7.408;2023-08-31T11:01:51;3.30;;;1.80;;
4355;SDS011;64374;51.482;7.408;2023-08-31T11:04:53;2.30;;;1.60;;
4355;SDS011;64374;51.482;7.408;2023-08-31T11:07:41;2.00;;;1.73;;
4355;SDS011;64374;51.482;7.408;2023-08-31T11:10:29;2.83;;;1.70;;
4355;SDS011;64374;51.482;7.408;2023-08-31T11:13:18;6.20;;;1.70;;
4355;SDS011;64374;51.482;7.408;2023-08-31T11:16:07;6.07;;;1.70;;
4355;SDS011;64374;51.482;7.408;2023-08-31T11:18:54;7.47;;;1.90;;
4355;SDS011;64374;51.482;7.408;2023-08-31T11:21:41;5.13;;;2.10;;
4355;SDS011;64374;51.482;7.408;2023-08-31T11:24:28;1.80;;;1.60;;
4355;SDS011;64374;51.482;7.408;2023-08-31T11:27:18;3.33;;;2.00;;
4355;SDS011;64374;51.482;7.408;2023-08-31T11:30:12;4.13;;;1.73;;
4355;SDS011;64374;51.482;7.408;2023-08-31T11:33:01;6.23;;;1.97;;
4355;SDS011;64374;51.482;7.408;2023-08-31T11:35:49;5.20;;;1.67;;
4355;SDS011;64374;51.482;7.408;2023-08-31T11:38:36;5.43;;;1.57;;
4355;SDS011;64374;51.482;7.408;2023-08-31T11:41:23;5.97;;;2.10;;
4355;SDS011;64374;51.482;7.408;2023-08-31T11:44:12;4.37;;;2.20;;
4355;SDS011;64374;51.482;7.408;2023-08-31T11:47:03;6.37;;;2.27;;
4355;SDS011;64374;51.482;7.408;2023-08-31T11:49:50;5.90;;;2.10;;
4355;SDS011;64374;51.482;7.408;2023-08-31T11:52:38;3.77;;;2.40;;
4355;SDS011;64374;51.482;7.408;2023-08-31T11:55:28;3.07;;;2.10;;
4355;SDS011;64374;51.482;7.408;2023-08-31T11:58:16;4.10;;;2.50;;
4355;SDS011;64374;51.482;7.408;2023-08-31T12:01:02;4.50;;;2.10;;
4355;SDS011;64374;51.482;7.408;2023-08-31T12:03:53;2.70;;;1.73;;
4355;SDS011;64374;51.482;7.408;2023-08-31T12:06:22;4.87;;;2.40;;
4355;SDS011;64374;51.482;7.408;2023-08-31T12:08:58;4.33;;;2.33;;
4355;SDS011;64374;51.482;7.408;2023-08-31T12:11:26;4.30;;;1.47;;
4355;SDS011;64374;51.482;7.408;2023-08-31T12:13:54;6.60;;;2.03;;
4355;SDS011;64374;51.482;7.408;2023-08-31T12:16:22;4.10;;;2.10;;
4355;SDS011;64374;51.482;7.408;2023-08-31T12:18:53;4.20;;;1.93;;
4355;SDS011;64374;51.482;7.408;2023-08-31T12:21:26;4.37;;;2.30;;
4355;SDS011;64374;51.482;7.408;2023-08-31T12:23:56;4.13;;;1.63;;
4355;SDS011;64374;51.482;7.408;2023-08-31T12:26:32;2.90;;;1.50;;
4355;SDS011;64374;51.482;7.408;2023-08-31T12:29:00;2.30;;;1.40;;
4355;SDS011;64374;51.482;7.408;2023-08-31T12:31:29;4.07;;;1.70;;
4355;SDS011;64374;51.482;7.408;2023-08-31T12:34:01;3.57;;;1.70;;
4355;SDS011;64374;51.482;7.408;2023-08-31T12:36:32;6.43;;;1.80;;
4355;SDS011;64374;51.482;7.408;2023-08-31T12:39:04;5.43;;;2.00;;
4355;SDS011;64374;51.482;7.408;2023-08-31T12:41:33;2.50;;;1.80;;
4355;SDS011;64374;51.482;7.408;2023-08-31T12:44:05;3.50;;;1.80;;
4355;SDS011;64374;51.482;7.408;2023-08-31T12:46:38;4.77;;;1.70;;
4355;SDS011;64374;51.482;7.408;2023-08-31T12:49:15;4.73;;;2.23;;
4355;SDS011;64374;51.482;7.408;2023-08-31T12:51:47;4.17;;;1.87;;
4355;SDS011;64374;51.482;7.408;2023-08-31T12:54:19;4.00;;;2.40;;
4355;SDS011;64374;51.482;7.408;2023-08-31T12:56:47;3.20;;;1.60;;
4355;SDS011;64374;51.482;7.408;2023-08-31T12:59:16;5.17;;;2.03;;
4355;SDS011;64374;51.482;7.408;2023-08-31T13:02:03;3.80;;;1.87;;
4355;SDS011;64374;51.482;7.408;2023-08-31T13:04:56;4.00;;;1.63;;
4355;SDS011;64374;51.482;7.408;2023-08-31T13:07:24;6.50;;;1.53;;
4355;SDS011;64374;51.482;7.408;2023-08-31T13:09:53;16.93;;;2.40;;
4355;SDS011;64374;51.482;7.408;2023-08-31T13:12:21;3.73;;;1.40;;
4355;SDS011;64374;51.482;7.408;2023-08-31T13:14:56;2.07;;;1.83;;
4355;SDS011;64374;51.482;7.408;2023-08-31T13:17:40;4.00;;;1.80;;
4355;SDS011;64374;51.482;7.408;2023-08-31T13:20:12;7.73;;;2.73;;
4355;SDS011;64374;51.482;7.408;2023-08-31T13:22:43;3.57;;;1.80;;
4355;SDS011;64374;51.482;7.408;2023-08-31T13:25:12;5.50;;;2.20;;
4355;SDS011;64374;51.482;7.408;2023-08-31T13:30:37;3.13;;;2.33;;
4355;SDS011;64374;51.482;7.408;2023-08-31T13:33:12;6.00;;;2.57;;
4355;SDS011;64374;51.482;7.408;2023-08-31T13:35:41;2.30;;;1.87;;
4355;SDS011;64374;51.482;7.408;2023-08-31T13:38:10;4.63;;;2.10;;
4355;SDS011;64374;51.482;7.408;2023-08-31T13:40:40;4.60;;;2.03;;
4355;SDS011;64374;51.482;7.408;2023-08-31T13:43:10;3.43;;;2.23;;
4355;SDS011;64374;51.482;7.408;2023-08-31T13:45:41;5.40;;;2.00;;
4355;SDS011;64374;51.482;7.408;2023-08-31T13:48:09;2.80;;;2.13;;
4355;SDS011;64374;51.482;7.408;2023-08-31T13:50:42;5.80;;;2.20;;
4355;SDS011;64374;51.482;7.408;2023-08-31T13:53:12;5.70;;;2.30;;
4355;SDS011;64374;51.482;7.408;2023-08-31T13:55:44;4.43;;;2.27;;
4355;SDS011;64374;51.482;7.408;2023-08-31T13:58:14;5.67;;;2.20;;
4355;SDS011;64374;51.482;7.408;2023-08-31T14:00:43;4.20;;;2.13;;
4355;SDS011;64374;51.482;7.408;2023-08-31T14:03:11;3.07;;;1.80;;
4355;SDS011;64374;51.482;7.408;2023-08-31T14:05:46;5.33;;;1.80;;
4355;SDS011;64374;51.482;7.408;2023-08-31T14:08:33;3.60;;;2.33;;
4355;SDS011;64374;51.482;7.408;2023-08-31T14:11:23;5.50;;;2.63;;
4355;SDS011;64374;51.482;7.408;2023-08-31T14:14:15;2.50;;;1.90;;
4355;SDS011;64374;51.482;7.408;2023-08-31T14:17:02;8.87;;;2.70;;
4355;SDS011;64374;51.482;7.408;2023-08-31T14:19:49;2.37;;;2.03;;
4355;SDS011;64374;51.482;7.408;2023-08-31T14:22:39;9.10;;;2.67;;
4355;SDS011;64374;51.482;7.408;2023-08-31T14:25:28;6.43;;;2.73;;
4355;SDS011;64374;51.482;7.408;2023-08-31T14:28:17;5.63;;;2.37;;
4355;SDS011;64374;51.482;7.408;2023-08-31T14:31:04;4.40;;;2.00;;
4355;SDS011;64374;51.482;7.408;2023-08-31T14:33:53;4.00;;;2.00;;
4355;SDS011;64374;51.482;7.408;2023-08-31T14:36:42;3.90;;;2.20;;
4355;SDS011;64374;51.482;7.408;2023-08-31T14:39:30;3.90;;;2.13;;
4355;SDS011;64374;51.482;7.408;2023-08-31T14:42:17;2.43;;;1.90;;
4355;SDS011;64374;51.482;7.408;2023-08-31T14:45:05;6.67;;;2.90;;
4355;SDS011;64374;51.482;7.408;2023-08-31T14:47:53;6.03;;;1.97;;
4355;SDS011;64374;51.482;7.408;2023-08-31T14:50:42;4.03;;;1.63;;
4355;SDS011;64374;51.482;7.408;2023-08-31T14:53:29;4.93;;;2.03;;
4355;SDS011;64374;51.482;7.408;2023-08-31T14:56:16;4.20;;;2.20;;
4355;SDS011;64374;51.482;7.408;2023-08-31T14:59:03;8.90;;;3.20;;
4355;SDS011;64374;51.482;7.408;2023-08-31T15:01:50;9.13;;;3.90;;
4355;SDS011;64374;51.482;7.408;2023-08-31T15:04:37;10.30;;;4.47;;
4355;SDS011;64374;51.482;7.408;2023-08-31T15:07:24;6.47;;;3.67;;
4355;SDS011;64374;51.482;7.408;2023-08-31T15:10:11;10.63;;;5.67;;
4355;SDS011;64374;51.482;7.408;2023-08-31T15:13:01;8.37;;;4.40;;
4355;SDS011;64374;51.482;7.408;2023-08-31T15:15:48;8.63;;;4.37;;
4355;SDS011;64374;51.482;7.408;2023-08-31T15:18:48;9.73;;;5.00;;
4355;SDS011;64374;51.482;7.408;2023-08-31T15:21:35;7.33;;;4.60;;
4355;SDS011;64374;51.482;7.408;2023-08-31T15:24:26;15.33;;;3.80;;
4355;SDS011;64374;51.482;7.408;2023-08-31T15:27:14;6.93;;;3.87;;
4355;SDS011;64374;51.482;7.408;2023-08-31T15:30:05;6.87;;;5.20;;
4355;SDS011;64374;51.482;7.408;2023-08-31T15:32:53;28.30;;;20.47;;
4355;SDS011;64374;51.482;7.408;2023-08-31T15:35:40;15.23;;;8.90;;
4355;SDS011;64374;51.482;7.408;2023-08-31T15:38:27;5.10;;;3.87;;
4355;SDS011;64374;51.482;7.408;2023-08-31T15:41:16;12.17;;;9.63;;
4355;SDS011;64374;51.482;7.408;2023-08-31T15:43:45;13.57;;;9.90;;
4355;SDS011;64374;51.482;7.408;2023-08-31T15:46:18;18.63;;;11.77;;
4355;SDS011;64374;51.482;7.408;2023-08-31T15:48:48;10.97;;;7.40;;
4355;SDS011;64374;51.482;7.408;2023-08-31T15:51:19;8.07;;;5.60;;
4355;SDS011;64374;51.482;7.408;2023-08-31T15:53:50;4.93;;;4.00;;
4355;SDS011;64374;51.482;7.408;2023-08-31T15:56:20;5.93;;;4.17;;
4355;SDS011;64374;51.482;7.408;2023-08-31T15:58:48;6.53;;;4.43;;
4355;SDS011;64374;51.482;7.408;2023-08-31T16:01:17;8.00;;;3.97;;
4355;SDS011;64374;51.482;7.408;2023-08-31T16:03:45;7.40;;;3.90;;
4355;SDS011;64374;51.482;7.408;2023-08-31T16:06:14;6.50;;;4.50;;
4355;SDS011;64374;51.482;7.408;2023-08-31T16:08:42;4.60;;;3.53;;
4355;SDS011;64374;51.482;7.408;2023-08-31T16:11:14;4.93;;;3.83;;
4355;SDS011;64374;51.482;7.408;2023-08-31T16:13:49;5.73;;;3.90;;
4355;SDS011;64374;51.482;7.408;2023-08-31T16:16:21;5.63;;;4.17;;
4355;SDS011;64374;51.482;7.408;2023-08-31T16:18:50;5.73;;;4.23;;
4355;SDS011;64374;51.482;7.408;2023-08-31T16:21:18;6.87;;;4.27;;
4355;SDS011;64374;51.482;7.408;2023-08-31T16:23:49;6.83;;;4.33;;
4355;SDS011;64374;51.482;7.408;2023-08-31T16:26:20;6.67;;;4.30;;
4355;SDS011;64374;51.482;7.408;2023-08-31T16:28:48;4.07;;;3.50;;
4355;SDS011;64374;51.482;7.408;2023-08-31T16:31:16;4.80;;;4.07;;
4355;SDS011;64374;51.482;7.408;2023-08-31T16:33:46;5.30;;;4.17;;
4355;SDS011;64374;51.482;7.408;2023-08-31T16:36:14;10.77;;;4.97;;
4355;SDS011;64374;51.482;7.408;2023-08-31T16:38:42;8.53;;;4.53;;
4355;SDS011;64374;51.482;7.408;2023-08-31T16:41:33;5.87;;;5.20;;
4355;SDS011;64374;51.482;7.408;2023-08-31T16:44:22;4.93;;;3.83;;